Time;durP1;ratioP1;P1;durP2;ratioP2;P2;SDS_P1;SDS_P2;PMS_P1;PMS_P2;Temp;Humidity;BMP_temperature;BMP_pressure;BME280_temperature;BME280_humidity;BME280_pressure;Samples;Min_cycle;Max_cycle;Signal;HPM_P1;HPM_P2
2023/07/18 00:00:32;;;;;;;2.47;1.37;;;18.70;96.30;;;;;;5028723;28;20983;-78
2023/07/18 00:02:59;;;;;;;2.63;1.40;;;18.70;96.40;;;;;;5029861;28;20587;-77
2023/07/18 00:05:25;;;;;;;3.23;1.60;;;18.60;97.00;;;;;;5029495;28;20588;-77
2023/07/18 00:07:51;;;;;;;3.67;1.27;;;18.60;97.10;;;;;;5030221;28;20580;-77
2023/07/18 00:10:20;;;;;;;3.90;1.50;;;18.60;97.50;;;;;;5030497;28;20905;-77
2023/07/18 00:12:46;;;;;;;2.87;1.47;;;18.50;97.50;;;;;;5028272;28;20597;-77
2023/07/18 00:15:13;;;;;;;2.87;1.40;;;18.50;97.50;;;;;;5028992;28;20573;-77
2023/07/18 00:17:40;;;;;;;3.30;1.50;;;18.50;97.60;;;;;;5018519;28;20235;-77
2023/07/18 00:20:12;;;;;;;3.93;1.60;;;18.50;97.80;;;;;;4995730;28;20650;-77
2023/07/18 00:22:41;;;;;;;3.80;1.40;;;18.50;97.80;;;;;;5012269;28;20616;-77
2023/07/18 00:25:13;;;;;;;2.53;1.47;;;18.50;98.10;;;;;;5030105;28;20571;-77
2023/07/18 00:27:43;;;;;;;2.57;1.53;;;18.40;98.30;;;;;;5012560;28;20592;-77
2023/07/18 00:30:13;;;;;;;3.27;1.30;;;18.40;98.50;;;;;;5029645;28;20620;-77
2023/07/18 00:32:41;;;;;;;2.67;1.70;;;18.40;98.60;;;;;;5012416;28;20599;-78
2023/07/18 00:35:07;;;;;;;2.90;1.40;;;18.30;99.70;;;;;;4979766;28;20966;-77
2023/07/18 00:37:35;;;;;;;4.67;1.50;;;18.30;99.40;;;;;;4996172;28;20624;-77
2023/07/18 00:40:02;;;;;;;4.03;1.50;;;18.20;99.30;;;;;;4995640;28;21026;-77
2023/07/18 00:42:28;;;;;;;4.33;1.63;;;18.20;99.60;;;;;;5029747;28;21365;-78
2023/07/18 00:44:54;;;;;;;4.67;1.87;;;18.20;99.80;;;;;;4996020;28;20591;-77
2023/07/18 00:47:22;;;;;;;3.50;1.50;;;18.10;99.90;;;;;;4996289;28;20177;-77
2023/07/18 00:49:48;;;;;;;3.00;1.57;;;18.10;99.90;;;;;;5012230;28;20177;-78
2023/07/18 00:52:15;;;;;;;4.10;2.60;;;18.10;99.90;;;;;;4995445;28;21105;-77
2023/07/18 00:54:43;;;;;;;3.50;1.50;;;18.10;99.90;;;;;;5030035;28;20580;-77
2023/07/18 00:57:10;;;;;;;3.50;1.60;;;18.00;99.90;;;;;;4995968;28;20635;-77
2023/07/18 00:59:37;;;;;;;5.27;2.00;;;18.00;99.90;;;;;;5015856;28;20636;-77
2023/07/18 01:02:05;;;;;;;4.10;1.87;;;17.90;99.90;;;;;;4998774;28;20608;-77
2023/07/18 01:04:31;;;;;;;3.97;1.43;;;17.90;99.90;;;;;;4983600;28;20576;-77
2023/07/18 01:07:00;;;;;;;3.07;1.60;;;17.90;99.90;;;;;;4999351;28;20596;-77
2023/07/18 01:09:26;;;;;;;3.50;1.70;;;17.90;99.90;;;;;;5033644;28;20583;-77
2023/07/18 01:11:52;;;;;;;3.90;1.60;;;17.90;99.90;;;;;;5015238;28;20616;-78
2023/07/18 01:14:18;;;;;;;2.57;1.60;;;17.90;99.90;;;;;;5006873;28;20289;-78
2023/07/18 01:16:44;;;;;;;2.90;1.90;;;17.80;99.90;;;;;;5015288;28;20648;-77
2023/07/18 01:19:10;;;;;;;3.20;1.57;;;17.80;99.90;;;;;;5018552;28;20623;-78
2023/07/18 01:21:38;;;;;;;6.97;1.97;;;17.80;99.90;;;;;;5025629;28;20685;-78
2023/07/18 01:24:04;;;;;;;6.10;2.03;;;17.70;99.90;;;;;;5013020;28;20691;-77
2023/07/18 01:26:29;;;;;;;5.03;2.23;;;17.70;99.90;;;;;;5007422;28;20170;-78
2023/07/18 01:28:55;;;;;;;2.53;1.70;;;17.70;99.90;;;;;;5031691;28;20639;-78
2023/07/18 01:31:21;;;;;;;11.30;2.30;;;17.60;99.90;;;;;;5032367;28;20604;-78
2023/07/18 01:33:47;;;;;;;3.67;2.40;;;17.60;99.90;;;;;;5016186;28;20170;-79
2023/07/18 01:36:13;;;;;;;2.57;1.63;;;17.50;99.90;;;;;;5033020;28;20188;-78
2023/07/18 01:38:39;;;;;;;4.43;1.50;;;17.50;99.90;;;;;;5033901;28;20949;-78
2023/07/18 01:41:07;;;;;;;4.17;1.43;;;17.50;99.90;;;;;;5033243;28;20182;-78
2023/07/18 01:43:34;;;;;;;4.50;2.07;;;17.40;99.90;;;;;;5049970;23;20181;-75
2023/07/18 01:46:00;;;;;;;3.57;1.50;;;17.40;99.90;;;;;;5034024;28;20722;-75
2023/07/18 01:48:28;;;;;;;3.50;1.60;;;17.30;99.90;;;;;;5034358;28;20595;-75
2023/07/18 01:50:54;;;;;;;2.37;1.33;;;17.30;99.90;;;;;;5025034;28;20591;-76
2023/07/18 01:53:26;;;;;;;4.50;1.70;;;17.30;99.90;;;;;;5045928;28;20598;-76
2023/07/18 01:55:54;;;;;;;3.63;1.67;;;17.30;99.90;;;;;;5026681;28;20572;-75
2023/07/18 01:58:20;;;;;;;4.37;1.80;;;17.30;99.90;;;;;;5051682;28;21162;-76
2023/07/18 02:00:46;;;;;;;5.10;1.73;;;17.20;99.90;;;;;;5017594;28;20623;-77
2023/07/18 02:03:12;;;;;;;4.23;1.77;;;17.20;99.90;;;;;;5052577;28;20161;-77
2023/07/18 02:05:38;;;;;;;3.80;2.00;;;17.10;99.90;;;;;;5052508;28;20181;-77
2023/07/18 02:08:04;;;;;;;4.20;1.77;;;17.10;99.90;;;;;;5018271;28;20637;-78
2023/07/18 02:10:32;;;;;;;3.40;1.47;;;17.00;99.90;;;;;;5017865;28;20204;-76
2023/07/18 02:13:01;;;;;;;2.50;1.53;;;17.00;99.90;;;;;;5018038;28;20618;-76
2023/07/18 02:15:28;;;;;;;3.97;1.67;;;17.00;99.90;;;;;;5053066;28;20623;-76
2023/07/18 02:17:54;;;;;;;2.83;1.60;;;16.90;99.90;;;;;;5017761;28;20571;-76
2023/07/18 02:20:20;;;;;;;3.80;1.50;;;16.90;99.90;;;;;;5034350;28;21205;-76
2023/07/18 02:22:46;;;;;;;2.73;1.37;;;16.90;99.90;;;;;;5017596;28;21043;-76
2023/07/18 02:25:15;;;;;;;3.33;1.97;;;16.80;99.90;;;;;;5017899;28;20223;-76
2023/07/18 02:27:41;;;;;;;3.60;1.60;;;16.80;99.90;;;;;;5009340;28;21230;-76
2023/07/18 02:30:11;;;;;;;2.43;1.37;;;16.80;99.90;;;;;;5033919;28;21146;-76
2023/07/18 02:32:41;;;;;;;3.87;1.40;;;16.90;99.90;;;;;;5017252;28;20579;-76
2023/07/18 02:35:08;;;;;;;4.27;1.70;;;16.80;99.90;;;;;;5034536;28;20611;-75
2023/07/18 02:37:35;;;;;;;2.87;1.60;;;16.80;99.90;;;;;;5034038;28;20591;-76
2023/07/18 02:40:08;;;;;;;3.50;2.50;;;16.80;99.90;;;;;;5001782;28;20631;-76
2023/07/18 02:42:36;;;;;;;3.50;1.80;;;16.80;99.90;;;;;;5052250;28;20575;-76
2023/07/18 02:45:02;;;;;;;4.57;1.57;;;16.80;99.90;;;;;;5034746;28;20685;-76
2023/07/18 02:47:28;;;;;;;3.60;1.33;;;16.80;99.90;;;;;;5018672;28;20678;-75
2023/07/18 02:49:54;;;;;;;4.27;1.70;;;16.70;99.90;;;;;;5034113;28;20674;-75
2023/07/18 02:52:19;;;;;;;2.55;1.45;;;16.80;99.90;;;;;;5035316;28;20188;-75
2023/07/18 02:54:45;;;;;;;3.07;1.73;;;16.70;99.90;;;;;;5035148;28;20201;-76
2023/07/18 02:57:11;;;;;;;5.50;2.07;;;16.70;99.90;;;;;;5055772;28;20219;-76
2023/07/18 02:59:37;;;;;;;3.93;1.47;;;16.70;99.90;;;;;;5046091;28;20215;-76
2023/07/18 03:02:04;;;;;;;4.53;1.50;;;16.70;99.90;;;;;;5025561;28;20169;-76
2023/07/18 03:04:30;;;;;;;3.20;1.43;;;16.60;99.90;;;;;;5028600;28;20706;-75
2023/07/18 03:06:57;;;;;;;3.20;2.03;;;16.60;99.90;;;;;;5044850;28;20564;-76
2023/07/18 03:09:23;;;;;;;3.37;2.00;;;16.60;99.90;;;;;;5029820;28;20590;-76
2023/07/18 03:11:52;;;;;;;4.50;2.27;;;16.50;99.90;;;;;;5040835;28;20762;-77
2023/07/18 03:14:19;;;;;;;4.23;1.57;;;16.50;99.90;;;;;;5017198;28;20201;-76
2023/07/18 03:16:45;;;;;;;5.37;2.10;;;16.50;99.90;;;;;;5000322;28;20599;-76
2023/07/18 03:19:11;;;;;;;4.00;1.73;;;16.50;99.90;;;;;;5032854;28;20662;-76
2023/07/18 03:21:37;;;;;;;3.70;1.80;;;16.40;99.90;;;;;;5031891;28;20568;-76
2023/07/18 03:24:07;;;;;;;3.67;1.90;;;16.40;99.90;;;;;;5016993;28;20627;-76
2023/07/18 03:26:37;;;;;;;2.50;1.50;;;16.40;99.90;;;;;;5016518;28;20219;-76
2023/07/18 03:29:06;;;;;;;3.57;1.40;;;16.30;99.90;;;;;;5050646;28;20584;-76
2023/07/18 03:31:33;;;;;;;2.57;1.40;;;16.40;99.90;;;;;;5032777;28;20599;-75
2023/07/18 03:34:00;;;;;;;4.07;2.43;;;16.30;99.90;;;;;;5033273;28;20623;-77
2023/07/18 03:36:27;;;;;;;3.17;1.47;;;16.30;99.90;;;;;;5050570;28;20622;-76
2023/07/18 03:38:53;;;;;;;3.03;1.60;;;16.30;99.90;;;;;;5032838;28;20631;-76
2023/07/18 03:41:23;;;;;;;3.20;1.50;;;16.30;99.90;;;;;;5016069;28;20624;-76
2023/07/18 03:43:49;;;;;;;2.67;1.67;;;16.20;99.90;;;;;;5032826;28;20697;-76
2023/07/18 03:46:15;;;;;;;3.70;1.60;;;16.30;99.90;;;;;;5050950;28;20173;-76
2023/07/18 03:48:41;;;;;;;3.30;1.43;;;16.30;99.90;;;;;;5016067;28;21153;-76
2023/07/18 03:51:06;;;;;;;4.73;2.40;;;16.30;99.90;;;;;;5032270;28;20196;-76
2023/07/18 03:53:32;;;;;;;3.20;1.90;;;16.30;99.90;;;;;;5050501;28;20177;-76
2023/07/18 03:56:02;;;;;;;4.77;1.80;;;16.20;99.90;;;;;;5050605;28;20214;-75
2023/07/18 03:58:29;;;;;;;4.55;1.77;;;16.20;99.90;;;;;;5050351;28;20570;-76
2023/07/18 04:00:54;;;;;;;3.93;2.13;;;16.20;99.90;;;;;;5032428;28;20236;-75
2023/07/18 04:03:26;;;;;;;3.20;1.70;;;16.20;99.90;;;;;;5050047;28;20962;-76
2023/07/18 04:05:52;;;;;;;3.30;2.10;;;16.20;99.90;;;;;;5050405;28;20559;-75
2023/07/18 04:08:20;;;;;;;2.83;2.00;;;16.20;99.90;;;;;;5050162;28;20700;-75
2023/07/18 04:10:46;;;;;;;4.37;2.23;;;16.20;99.90;;;;;;5032215;28;20173;-75
2023/07/18 04:13:12;;;;;;;4.30;2.17;;;16.20;99.90;;;;;;5032335;28;20591;-76
2023/07/18 04:15:37;;;;;;;3.20;2.00;;;16.20;99.90;;;;;;5050080;28;20865;-77
2023/07/18 04:18:04;;;;;;;3.60;1.77;;;16.20;99.90;;;;;;5032677;28;20216;-77
2023/07/18 04:20:29;;;;;;;3.40;1.80;;;16.20;99.90;;;;;;5049111;28;20215;-76
2023/07/18 04:22:55;;;;;;;4.03;1.60;;;16.30;99.90;;;;;;5032275;28;20572;-76
2023/07/18 04:25:21;;;;;;;3.23;2.10;;;16.30;99.90;;;;;;5049921;28;20583;-76
2023/07/18 04:27:47;;;;;;;3.40;1.67;;;16.30;99.90;;;;;;5050163;28;20169;-76
2023/07/18 04:30:13;;;;;;;2.57;1.70;;;16.30;99.90;;;;;;5031570;28;20176;-76
2023/07/18 04:32:41;;;;;;;3.27;1.83;;;16.40;99.90;;;;;;5034940;28;21150;-75
2023/07/18 04:35:08;;;;;;;3.83;1.60;;;16.40;99.90;;;;;;5035902;28;20603;-75
2023/07/18 04:37:33;;;;;;;3.60;2.37;;;16.50;99.90;;;;;;5054443;28;20969;-75
2023/07/18 04:39:59;;;;;;;4.93;2.13;;;16.60;99.90;;;;;;5036054;28;20631;-75
2023/07/18 04:42:25;;;;;;;4.63;2.07;;;16.70;99.90;;;;;;5035873;28;20180;-76
2023/07/18 04:44:50;;;;;;;3.53;1.60;;;16.80;99.90;;;;;;5036052;28;20213;-77
2023/07/18 04:47:16;;;;;;;3.77;2.70;;;16.90;99.90;;;;;;5019419;28;20212;-76
2023/07/18 04:49:41;;;;;;;4.20;1.93;;;16.90;99.90;;;;;;5035651;28;20173;-76
2023/07/18 04:52:07;;;;;;;3.70;2.40;;;17.00;99.90;;;;;;5053300;28;20187;-76
2023/07/18 04:54:33;;;;;;;5.57;2.30;;;17.00;99.90;;;;;;5036012;28;20199;-76
2023/07/18 04:56:59;;;;;;;4.93;2.20;;;17.10;99.90;;;;;;5053975;28;20710;-77
2023/07/18 04:59:25;;;;;;;3.17;1.57;;;17.30;99.90;;;;;;5019024;28;20718;-77
2023/07/18 05:01:53;;;;;;;3.97;1.70;;;17.40;99.90;;;;;;5035654;28;20718;-77
2023/07/18 05:04:18;;;;;;;5.17;2.43;;;17.60;99.90;;;;;;5036049;28;20707;-77
2023/07/18 05:06:45;;;;;;;3.87;2.03;;;17.70;99.90;;;;;;5053957;28;20662;-77
2023/07/18 05:09:10;;;;;;;4.77;2.00;;;17.80;99.90;;;;;;5035177;28;20659;-77
2023/07/18 05:11:36;;;;;;;4.93;1.60;;;17.90;99.90;;;;;;5019470;28;20571;-77
2023/07/18 05:14:01;;;;;;;4.00;2.10;;;17.90;99.90;;;;;;5035791;28;20196;-77
2023/07/18 05:16:27;;;;;;;2.83;1.90;;;18.00;99.90;;;;;;5038920;28;20180;-77
2023/07/18 05:18:53;;;;;;;4.30;2.20;;;18.10;99.90;;;;;;5054929;28;20716;-77
2023/07/18 05:21:19;;;;;;;5.20;2.17;;;18.10;99.90;;;;;;5037980;28;20173;-77
2023/07/18 05:23:45;;;;;;;4.17;1.80;;;18.10;99.90;;;;;;5037494;28;20603;-76
2023/07/18 05:26:11;;;;;;;3.07;1.63;;;18.20;99.90;;;;;;5038006;28;20590;-76
2023/07/18 05:28:37;;;;;;;3.30;1.37;;;18.20;99.90;;;;;;5054328;28;20196;-77
2023/07/18 05:31:09;;;;;;;3.20;1.77;;;18.30;99.90;;;;;;5053943;28;20181;-76
2023/07/18 05:33:35;;;;;;;4.00;1.90;;;18.50;99.90;;;;;;5036160;28;20622;-76
2023/07/18 05:36:02;;;;;;;3.80;2.00;;;18.60;99.90;;;;;;5036632;28;20576;-76
2023/07/18 05:38:28;;;;;;;3.70;1.70;;;18.60;99.90;;;;;;5054259;28;20593;-76
2023/07/18 05:40:53;;;;;;;3.33;1.77;;;18.70;99.90;;;;;;5035727;28;20619;-76
2023/07/18 05:43:19;;;;;;;6.73;2.37;;;18.70;99.90;;;;;;5053343;28;20663;-77
2023/07/18 05:45:45;;;;;;;2.70;1.83;;;18.70;99.90;;;;;;5053282;28;20618;-77
2023/07/18 05:48:11;;;;;;;5.50;2.60;;;18.70;99.90;;;;;;5035331;28;20200;-77
2023/07/18 05:50:36;;;;;;;6.33;1.90;;;18.70;99.90;;;;;;5052458;28;20165;-76
2023/07/18 05:53:02;;;;;;;4.50;1.90;;;18.70;99.90;;;;;;5034846;28;20172;-76
2023/07/18 05:55:28;;;;;;;4.23;1.90;;;18.80;99.90;;;;;;5035492;28;20224;-77
2023/07/18 05:57:54;;;;;;;2.70;1.70;;;19.20;99.90;;;;;;5033025;28;20173;-76
2023/07/18 06:00:20;;;;;;;5.10;1.90;;;19.60;99.90;;;;;;5016011;28;20205;-77
2023/07/18 06:02:48;;;;;;;3.00;1.50;;;20.20;99.90;;;;;;5050877;28;20613;-76
2023/07/18 06:05:14;;;;;;;3.80;1.37;;;21.10;99.90;;;;;;5052221;28;20618;-77
2023/07/18 06:07:40;;;;;;;2.50;1.20;;;22.00;99.90;;;;;;5034164;28;20575;-76
2023/07/18 06:10:06;;;;;;;4.30;1.40;;;23.00;99.90;;;;;;5051085;28;20632;-74
2023/07/18 06:12:32;;;;;;;3.37;1.30;;;23.90;99.90;;;;;;5033808;28;20590;-74
2023/07/18 06:14:58;;;;;;;3.17;0.90;;;24.60;99.90;;;;;;5052151;28;20626;-74
2023/07/18 06:17:24;;;;;;;2.73;1.10;;;25.50;99.90;;;;;;5017729;28;20973;-75
2023/07/18 06:19:50;;;;;;;3.00;1.23;;;26.40;99.90;;;;;;5033447;28;20623;-74
2023/07/18 06:22:16;;;;;;;2.40;1.20;;;27.00;99.90;;;;;;5034229;28;20567;-75
2023/07/18 06:24:42;;;;;;;2.70;1.20;;;27.60;99.90;;;;;;5034073;28;20231;-75
2023/07/18 06:27:08;;;;;;;5.00;1.20;;;28.30;99.90;;;;;;5017905;28;20598;-75
2023/07/18 06:29:34;;;;;;;4.00;1.43;;;29.10;99.90;;;;;;5032607;28;20546;-76
2023/07/18 06:32:00;;;;;;;3.17;1.53;;;29.70;99.40;;;;;;5034669;28;20295;-76
2023/07/18 06:34:30;;;;;;;3.00;1.53;;;30.10;96.20;;;;;;5033269;28;20611;-77
2023/07/18 06:36:59;;;;;;;2.60;1.23;;;30.50;95.20;;;;;;5052087;28;20613;-76
2023/07/18 06:39:26;;;;;;;2.00;0.83;;;31.00;94.10;;;;;;5033657;28;20739;-76
2023/07/18 06:41:52;;;;;;;3.27;1.07;;;31.50;92.80;;;;;;5016565;28;20596;-76
2023/07/18 06:44:18;;;;;;;6.63;1.20;;;32.20;91.90;;;;;;5051385;28;20612;-75
2023/07/18 06:46:45;;;;;;;2.30;1.10;;;32.90;90.60;;;;;;5016915;28;20582;-76
2023/07/18 06:49:13;;;;;;;2.67;1.37;;;33.50;88.70;;;;;;5051381;28;21104;-76
2023/07/18 06:51:39;;;;;;;3.53;1.23;;;34.00;84.50;;;;;;5050561;28;20572;-76
2023/07/18 06:54:05;;;;;;;2.93;1.00;;;34.30;80.80;;;;;;5033641;28;20626;-76
2023/07/18 06:56:31;;;;;;;2.87;1.10;;;34.80;77.50;;;;;;5049971;28;20592;-76
2023/07/18 06:58:57;;;;;;;2.47;1.30;;;35.10;71.40;;;;;;5032560;28;20538;-76
2023/07/18 07:01:22;;;;;;;2.00;1.00;;;35.30;69.00;;;;;;5035779;28;20203;-74
2023/07/18 07:03:49;;;;;;;1.87;1.00;;;35.70;65.80;;;;;;5033087;28;21816;-75
2023/07/18 07:06:16;;;;;;;2.53;1.20;;;35.80;63.00;;;;;;5051450;28;20208;-77
2023/07/18 07:08:42;;;;;;;2.70;1.20;;;36.10;61.10;;;;;;5016752;28;20665;-75
2023/07/18 07:11:08;;;;;;;2.70;1.30;;;36.20;59.80;;;;;;5031650;28;20619;-76
2023/07/18 07:13:35;;;;;;;5.90;1.40;;;36.20;58.00;;;;;;5050124;28;20324;-75
2023/07/18 07:16:03;;;;;;;2.83;1.10;;;36.30;57.00;;;;;;5033332;28;20668;-75
2023/07/18 07:18:29;;;;;;;2.60;1.10;;;36.40;56.40;;;;;;5032883;28;20594;-76
2023/07/18 07:20:55;;;;;;;2.47;1.10;;;36.30;54.30;;;;;;5050472;28;20631;-78
2023/07/18 07:23:21;;;;;;;1.70;0.90;;;36.20;54.10;;;;;;5033345;28;20625;-76
2023/07/18 07:25:47;;;;;;;3.13;1.13;;;36.30;53.20;;;;;;5051066;28;20189;-76
2023/07/18 07:28:12;;;;;;;2.40;1.13;;;36.20;52.90;;;;;;5050635;28;20617;-76
2023/07/18 07:30:39;;;;;;;6.97;1.70;;;36.30;52.40;;;;;;5049348;28;20239;-75
2023/07/18 07:33:05;;;;;;;1.90;1.00;;;36.20;52.10;;;;;;5032375;28;21366;-74
2023/07/18 07:35:31;;;;;;;2.83;1.30;;;36.20;51.70;;;;;;5050597;28;20212;-76
2023/07/18 07:37:58;;;;;;;2.77;1.17;;;35.80;48.90;;;;;;5033156;28;20180;-76
2023/07/18 07:40:24;;;;;;;2.80;1.10;;;35.20;48.60;;;;;;5050607;28;21205;-75
2023/07/18 07:42:50;;;;;;;2.27;0.93;;;35.00;48.60;;;;;;5031209;28;20641;-76
2023/07/18 07:45:16;;;;;;;4.00;1.17;;;35.10;50.00;;;;;;5051706;28;20204;-77
2023/07/18 07:47:43;;;;;;;3.17;1.10;;;35.50;50.80;;;;;;5041690;28;20213;-78
2023/07/18 07:50:09;;;;;;;3.23;1.27;;;35.90;50.00;;;;;;5015599;28;21142;-76
2023/07/18 07:52:35;;;;;;;3.13;1.00;;;36.20;49.50;;;;;;5007655;28;20596;-76
2023/07/18 07:55:01;;;;;;;2.83;1.20;;;36.30;48.10;;;;;;5029442;28;20635;-75
2023/07/18 07:57:27;;;;;;;2.60;1.10;;;36.30;47.70;;;;;;5042694;28;20692;-77
2023/07/18 07:59:53;;;;;;;2.83;1.07;;;36.30;47.40;;;;;;5042520;28;21248;-77
2023/07/18 08:02:19;;;;;;;3.67;1.10;;;36.30;46.50;;;;;;5024153;28;20252;-76
2023/07/18 08:04:46;;;;;;;2.93;0.80;;;35.70;45.60;;;;;;5050628;28;20692;-75
2023/07/18 08:07:12;;;;;;;2.60;1.03;;;35.40;45.60;;;;;;5032935;28;20674;-77
2023/07/18 08:09:37;;;;;;;4.20;1.10;;;35.20;45.80;;;;;;5050364;28;20667;-76
2023/07/18 08:12:04;;;;;;;2.10;1.00;;;35.10;45.70;;;;;;5018094;28;20168;-76
2023/07/18 08:14:34;;;;;;;5.57;1.13;;;35.10;46.10;;;;;;5050494;28;20235;-76
2023/07/18 08:17:03;;;;;;;2.27;1.13;;;35.30;45.70;;;;;;5048796;28;20572;-75
2023/07/18 08:19:29;;;;;;;3.83;0.83;;;35.60;46.50;;;;;;5048280;28;20623;-77
2023/07/18 08:21:56;;;;;;;2.63;0.87;;;36.20;46.90;;;;;;5030202;28;20590;-75
2023/07/18 08:24:22;;;;;;;2.20;0.90;;;36.60;46.20;;;;;;5049680;28;20679;-77
2023/07/18 08:26:48;;;;;;;3.40;1.23;;;37.20;46.00;;;;;;5049000;28;20572;-76
2023/07/18 08:29:13;;;;;;;2.47;0.90;;;37.70;45.70;;;;;;5032016;28;20321;-76
2023/07/18 08:31:39;;;;;;;2.33;1.00;;;38.10;44.70;;;;;;5031748;28;20266;-77
2023/07/18 08:34:04;;;;;;;2.83;1.30;;;38.20;43.50;;;;;;5049740;28;20243;-76
2023/07/18 08:36:31;;;;;;;2.50;1.13;;;38.20;43.00;;;;;;5031534;28;20259;-77
2023/07/18 08:38:56;;;;;;;1.90;0.80;;;38.40;42.80;;;;;;5032059;28;20647;-76
2023/07/18 08:41:22;;;;;;;2.60;1.03;;;38.50;42.10;;;;;;5049297;28;20617;-76
2023/07/18 08:43:49;;;;;;;2.43;1.00;;;38.30;40.50;;;;;;5048336;28;20299;-76
2023/07/18 08:46:16;;;;;;;2.30;0.83;;;38.10;40.50;;;;;;5032318;28;20179;-76
2023/07/18 08:48:43;;;;;;;1.77;0.90;;;38.30;40.40;;;;;;5031940;28;20591;-76
2023/07/18 08:51:10;;;;;;;2.80;1.50;;;38.20;39.90;;;;;;5049435;28;20621;-76
2023/07/18 08:53:38;;;;;;;2.50;1.20;;;37.50;38.60;;;;;;5048908;28;20669;-76
2023/07/18 08:56:04;;;;;;;1.60;0.90;;;37.10;39.00;;;;;;5050356;28;20586;-76
2023/07/18 08:58:30;;;;;;;4.03;0.77;;;36.70;38.50;;;;;;5050244;28;20592;-76
2023/07/18 09:00:56;;;;;;;3.33;1.07;;;36.30;38.80;;;;;;5050596;28;20697;-76
2023/07/18 09:03:21;;;;;;;1.50;0.70;;;35.90;39.00;;;;;;5031817;28;20598;-76
2023/07/18 09:05:47;;;;;;;4.43;1.20;;;35.40;38.60;;;;;;5015042;28;20609;-77
2023/07/18 09:08:13;;;;;;;3.20;1.10;;;34.90;38.90;;;;;;5049954;28;20180;-76
2023/07/18 09:10:39;;;;;;;3.67;1.60;;;34.50;39.00;;;;;;5048045;28;20591;-75
2023/07/18 09:13:09;;;;;;;2.50;0.90;;;33.90;38.50;;;;;;5044460;28;20188;-76
2023/07/18 09:15:38;;;;;;;2.30;1.20;;;33.30;38.90;;;;;;5031172;28;20210;-76
2023/07/18 09:18:06;;;;;;;3.30;1.20;;;33.00;39.40;;;;;;5049826;28;20600;-76
2023/07/18 09:20:33;;;;;;;2.30;0.80;;;32.80;40.30;;;;;;5052436;28;20624;-74
2023/07/18 09:23:03;;;;;;;2.30;0.90;;;32.80;40.70;;;;;;5052835;28;20583;-75
2023/07/18 09:25:29;;;;;;;2.23;0.80;;;32.80;40.70;;;;;;5052270;28;20652;-76
2023/07/18 09:27:57;;;;;;;3.90;1.00;;;33.00;41.10;;;;;;5035363;28;20578;-75
2023/07/18 09:30:34;;;;;;;3.30;1.23;;;33.30;41.20;;;;;;5035082;28;21282;-78
2023/07/18 09:33:04;;;;;;;2.30;0.80;;;33.60;41.60;;;;;;5037961;28;20583;-76
2023/07/18 09:35:30;;;;;;;3.40;1.20;;;33.90;41.10;;;;;;5035343;28;20620;-77
2023/07/18 09:37:56;;;;;;;2.83;0.90;;;34.10;41.00;;;;;;5034806;28;21146;-76
2023/07/18 09:40:22;;;;;;;2.90;0.83;;;34.20;40.60;;;;;;5052366;28;21030;-76
2023/07/18 09:42:49;;;;;;;4.73;1.73;;;34.10;40.20;;;;;;5055720;28;20631;-78
2023/07/18 09:45:16;;;;;;;1.97;0.80;;;33.90;39.60;;;;;;5053043;28;20273;-78
2023/07/18 09:47:43;;;;;;;2.20;1.00;;;33.60;39.50;;;;;;5034804;28;20621;-75
2023/07/18 09:50:10;;;;;;;1.80;1.00;;;33.30;39.50;;;;;;5051492;28;20944;-78
2023/07/18 09:52:46;;;;;;;2.93;1.00;;;33.10;40.00;;;;;;5052337;28;20620;-77
2023/07/18 09:55:14;;;;;;;2.93;1.43;;;33.10;40.50;;;;;;5034272;28;21198;-77
2023/07/18 09:57:41;;;;;;;2.27;1.00;;;33.10;40.30;;;;;;5034386;28;20968;-77
2023/07/18 10:00:11;;;;;;;3.23;1.10;;;33.10;40.10;;;;;;5033848;28;20684;-76
2023/07/18 10:02:39;;;;;;;5.00;1.00;;;33.20;40.00;;;;;;5026076;28;20596;-76
2023/07/18 10:05:05;;;;;;;2.43;1.20;;;33.20;40.10;;;;;;5051883;28;20652;-74
2023/07/18 10:07:33;;;;;;;2.53;0.97;;;33.20;40.10;;;;;;5033145;28;20613;-75
2023/07/18 10:10:01;;;;;;;1.90;1.10;;;33.30;40.10;;;;;;5051831;28;21099;-75
2023/07/18 10:12:27;;;;;;;3.20;1.00;;;33.30;40.20;;;;;;5051504;28;20581;-75
2023/07/18 10:15:00;;;;;;;3.50;1.07;;;33.30;39.80;;;;;;5033358;28;20641;-75
2023/07/18 10:17:40;;;;;;;3.10;1.30;;;33.30;39.50;;;;;;5031927;28;20575;-74
2023/07/18 10:20:17;;;;;;;2.47;1.20;;;33.10;39.40;;;;;;5031563;28;20642;-75
2023/07/18 10:22:57;;;;;;;3.50;1.00;;;32.90;39.20;;;;;;5013059;28;20608;-74
2023/07/18 10:25:25;;;;;;;1.60;0.80;;;32.50;38.80;;;;;;5031920;28;20646;-74
2023/07/18 10:27:52;;;;;;;3.73;2.10;;;32.30;39.20;;;;;;5014439;28;20585;-77
2023/07/18 10:30:19;;;;;;;2.20;1.40;;;32.00;39.50;;;;;;5013202;28;20585;-77
2023/07/18 10:32:58;;;;;;;1.80;0.90;;;32.10;40.50;;;;;;5014282;28;20589;-74
2023/07/18 10:35:26;;;;;;;3.43;1.07;;;32.50;41.00;;;;;;5031294;28;20618;-74
2023/07/18 10:37:55;;;;;;;2.43;1.07;;;32.90;41.20;;;;;;5013961;28;20579;-74
2023/07/18 10:40:37;;;;;;;2.07;1.00;;;33.20;40.60;;;;;;5013467;28;20626;-75
2023/07/18 10:43:11;;;;;;;2.10;1.07;;;33.20;39.80;;;;;;5014630;28;20936;-75
2023/07/18 10:45:39;;;;;;;2.83;1.20;;;33.20;39.50;;;;;;5015143;28;20622;-75
2023/07/18 10:48:13;;;;;;;4.87;1.00;;;33.00;39.30;;;;;;5043975;28;20574;-75
2023/07/18 10:50:41;;;;;;;2.10;1.00;;;32.80;39.20;;;;;;5033315;28;20579;-75
2023/07/18 10:53:15;;;;;;;3.57;1.43;;;32.70;39.40;;;;;;5033634;28;20587;-75
2023/07/18 10:55:41;;;;;;;5.00;1.10;;;32.70;39.90;;;;;;5018270;28;20625;-75
2023/07/18 10:58:15;;;;;;;2.63;1.10;;;32.90;40.30;;;;;;5037942;28;20590;-75
2023/07/18 11:00:41;;;;;;;2.67;1.10;;;33.30;40.60;;;;;;5038793;28;20665;-74
2023/07/18 11:03:27;;;;;;;2.60;1.10;;;33.60;40.60;;;;;;5060733;28;20570;-75
2023/07/18 11:05:53;;;;;;;5.83;1.20;;;33.80;40.10;;;;;;5059990;28;20578;-75
2023/07/18 11:08:29;;;;;;;2.77;1.30;;;34.00;39.90;;;;;;5039135;28;20579;-75
2023/07/18 11:11:04;;;;;;;4.60;0.97;;;33.90;39.10;;;;;;5041083;28;20602;-74
2023/07/18 11:13:37;;;;;;;3.57;1.10;;;33.90;39.60;;;;;;5020658;28;20652;-75
2023/07/18 11:16:11;;;;;;;3.37;1.20;;;33.80;38.90;;;;;;5015043;28;20641;-75
2023/07/18 11:18:39;;;;;;;1.83;0.80;;;33.80;39.00;;;;;;5031318;28;20600;-75
2023/07/18 11:21:06;;;;;;;2.33;0.90;;;33.90;39.40;;;;;;5012403;28;20704;-74
2023/07/18 11:23:34;;;;;;;3.10;1.17;;;34.10;39.50;;;;;;5048763;28;20589;-74
2023/07/18 11:26:07;;;;;;;2.53;1.00;;;34.40;40.20;;;;;;5032766;28;20634;-75
2023/07/18 11:28:33;;;;;;;1.77;0.87;;;34.70;40.00;;;;;;5051217;28;20587;-75
2023/07/18 11:30:59;;;;;;;2.17;0.90;;;35.10;40.00;;;;;;5032006;28;20587;-76
2023/07/18 11:33:31;;;;;;;2.23;1.17;;;35.30;39.20;;;;;;5032800;28;20592;-75
2023/07/18 11:35:57;;;;;;;3.50;1.40;;;35.40;38.50;;;;;;5049942;28;20591;-75
2023/07/18 11:38:27;;;;;;;5.63;2.07;;;35.50;38.00;;;;;;5016597;28;20578;-75
2023/07/18 11:40:53;;;;;;;2.80;1.33;;;35.60;38.30;;;;;;5049615;28;20197;-76
2023/07/18 11:43:19;;;;;;;3.57;1.30;;;35.80;38.40;;;;;;5016096;28;20598;-75
2023/07/18 11:45:46;;;;;;;2.70;1.13;;;36.00;38.00;;;;;;5032945;28;20216;-76
2023/07/18 11:48:13;;;;;;;1.80;0.90;;;36.20;38.30;;;;;;5032936;28;20579;-76
2023/07/18 11:50:43;;;;;;;2.37;0.90;;;36.40;37.80;;;;;;5032535;28;20621;-76
2023/07/18 11:53:09;;;;;;;2.77;1.10;;;36.60;37.60;;;;;;5032205;28;20599;-75
2023/07/18 11:55:34;;;;;;;2.33;1.00;;;36.80;37.60;;;;;;5052044;28;21252;-75
2023/07/18 11:58:07;;;;;;;2.63;1.00;;;36.90;37.10;;;;;;5034881;28;20591;-76
2023/07/18 12:00:35;;;;;;;3.03;1.00;;;36.90;36.50;;;;;;5053047;28;20211;-75
2023/07/18 12:03:02;;;;;;;2.67;1.00;;;36.70;35.60;;;;;;5055710;28;20606;-75
2023/07/18 12:05:27;;;;;;;2.43;1.10;;;36.30;35.50;;;;;;5040735;28;21013;-75
2023/07/18 12:07:53;;;;;;;4.70;1.10;;;36.00;35.20;;;;;;5057629;28;20578;-75
2023/07/18 12:10:21;;;;;;;3.00;1.13;;;35.70;35.50;;;;;;5056964;28;20207;-75
2023/07/18 12:12:47;;;;;;;2.83;1.00;;;35.60;35.90;;;;;;5059940;28;20211;-75
2023/07/18 12:15:13;;;;;;;3.30;1.37;;;35.50;36.30;;;;;;5030312;28;21060;-75
2023/07/18 12:17:39;;;;;;;2.33;0.80;;;35.50;36.50;;;;;;5032357;28;20173;-75
2023/07/18 12:20:07;;;;;;;2.77;1.17;;;35.50;36.50;;;;;;5013727;28;20640;-75
2023/07/18 12:22:33;;;;;;;3.73;2.17;;;35.50;36.40;;;;;;5034335;28;20618;-74
2023/07/18 12:24:58;;;;;;;2.40;1.40;;;35.50;36.60;;;;;;5051904;28;20627;-75
2023/07/18 12:27:24;;;;;;;2.83;1.10;;;35.50;36.60;;;;;;5050561;28;20173;-75
2023/07/18 12:29:50;;;;;;;3.23;0.97;;;35.60;36.60;;;;;;5049926;28;20198;-74
2023/07/18 12:32:15;;;;;;;3.77;1.23;;;35.70;36.50;;;;;;5049532;28;20815;-74
2023/07/18 12:34:41;;;;;;;4.93;1.90;;;35.70;36.20;;;;;;5049881;28;20211;-75
2023/07/18 12:37:08;;;;;;;4.93;2.10;;;35.70;35.80;;;;;;5032159;28;20584;-75
2023/07/18 12:39:34;;;;;;;3.53;1.70;;;35.60;35.70;;;;;;5030863;28;20207;-75
2023/07/18 12:42:00;;;;;;;2.57;1.00;;;35.50;35.40;;;;;;5031278;28;20984;-75
2023/07/18 12:44:38;;;;;;;1.80;1.00;;;35.30;35.50;;;;;;5014624;28;20616;-75
2023/07/18 12:47:04;;;;;;;3.50;1.03;;;35.20;36.20;;;;;;5015025;28;20567;-75